createdAt,value
2022-10-23T00:02:30.967Z,18.10
2022-10-23T00:04:58.181Z,17.52
2022-10-23T00:07:31.868Z,17.08
2022-10-23T00:09:59.068Z,15.70
2022-10-23T00:12:34.824Z,16.55
2022-10-23T00:15:01.965Z,17.02
2022-10-23T00:17:39.129Z,18.27
2022-10-23T00:20:13.883Z,18.88
2022-10-23T00:22:54.999Z,17.83
2022-10-23T00:25:22.115Z,18.92
2022-10-23T00:27:49.275Z,17.25
2022-10-23T00:30:22.908Z,20.08
2022-10-23T00:32:50.030Z,19.63
2022-10-23T00:35:24.021Z,21.25
2022-10-23T00:37:51.295Z,21.65
2022-10-23T00:40:18.581Z,21.52
2022-10-23T00:42:51.955Z,19.35
2022-10-23T00:45:26.566Z,18.40
2022-10-23T00:48:00.923Z,17.98
2022-10-23T00:50:29.175Z,20.20
2022-10-23T00:53:03.991Z,20.25
2022-10-23T00:55:31.393Z,23.27
2022-10-23T00:58:04.927Z,22.33
2022-10-23T01:00:41.888Z,20.55
2022-10-23T01:03:16.103Z,21.75
2022-10-23T01:05:55.103Z,20.50
2022-10-23T01:08:36.888Z,19.42
2022-10-23T01:11:09.761Z,20.13
2022-10-23T01:16:45.164Z,18.88
2022-10-23T01:21:52.851Z,20.42
2022-10-23T01:24:39.008Z,18.95
2022-10-23T01:27:24.719Z,20.67
2022-10-23T01:30:16.018Z,19.67
2022-10-23T01:32:43.416Z,19.35
2022-10-23T01:37:49.958Z,15.98
2022-10-23T01:40:23.298Z,16.77
2022-10-23T01:43:00.887Z,20.45
2022-10-23T01:45:34.960Z,20.25
2022-10-23T01:48:09.859Z,19.85
2022-10-23T01:50:37.652Z,17.10
2022-10-23T01:53:11.899Z,20.00
2022-10-23T01:58:19.986Z,17.95
2022-10-23T02:00:47.798Z,19.75
2022-10-23T02:03:16.554Z,16.67
2022-10-23T02:05:50.883Z,16.73
2022-10-23T02:08:24.788Z,16.38
2022-10-23T02:11:11.479Z,17.05
2022-10-23T02:13:57.957Z,15.13
2022-10-23T02:16:43.672Z,16.02
2022-10-23T02:19:20.940Z,15.38
2022-10-23T02:22:15.332Z,15.37
2022-10-23T02:25:00.791Z,15.18
2022-10-23T02:27:32.726Z,15.80
2022-10-23T02:30:11.787Z,15.77
2022-10-23T02:32:42.134Z,16.48
2022-10-23T02:35:09.647Z,15.02
2022-10-23T02:37:44.297Z,15.15
2022-10-23T02:40:18.959Z,16.63
2022-10-23T02:43:07.987Z,15.13
2022-10-23T02:45:51.853Z,16.92
2022-10-23T02:48:24.265Z,16.95
2022-10-23T02:51:00.808Z,19.25
2022-10-23T02:53:27.939Z,19.42
2022-10-23T02:55:58.329Z,19.63
2022-10-23T02:58:51.991Z,19.98
2022-10-23T03:01:22.208Z,20.55
2022-10-23T03:03:58.867Z,21.88
2022-10-23T03:06:26.362Z,26.70
2022-10-23T03:09:00.894Z,25.15
2022-10-23T03:11:28.088Z,27.90
2022-10-23T03:14:02.043Z,23.10
2022-10-23T03:16:29.355Z,25.55
2022-10-23T03:18:56.463Z,24.52
2022-10-23T03:21:29.916Z,25.45
2022-10-23T03:24:03.883Z,24.00
2022-10-23T03:26:38.076Z,24.42
2022-10-23T03:29:05.315Z,25.05
2022-10-23T03:31:32.443Z,25.40
2022-10-23T03:34:08.134Z,25.23
2022-10-23T03:36:35.685Z,25.75
2022-10-23T03:39:11.108Z,24.35
2022-10-23T03:41:38.362Z,25.63
2022-10-23T03:46:43.923Z,25.38
2022-10-23T03:49:11.151Z,24.23
2022-10-23T03:51:48.059Z,23.67
2022-10-23T03:54:15.260Z,23.15
2022-10-23T03:56:42.622Z,27.05
2022-10-23T03:59:21.951Z,23.50
2022-10-23T04:01:49.299Z,24.52
2022-10-23T04:04:16.660Z,26.52
2022-10-23T04:06:49.892Z,25.73
2022-10-23T04:09:23.829Z,27.67
2022-10-23T04:11:58.077Z,26.88
2022-10-23T04:14:25.358Z,27.38
2022-10-23T04:16:52.450Z,27.73
2022-10-23T04:19:25.904Z,26.25
2022-10-23T04:21:59.892Z,29.55
2022-10-23T04:24:40.955Z,25.38
2022-10-23T04:27:08.108Z,26.17
2022-10-23T04:29:35.344Z,24.63
2022-10-23T04:32:09.129Z,26.60
2022-10-23T04:34:36.313Z,22.80
2022-10-23T04:37:03.447Z,20.23
2022-10-23T04:39:37.003Z,19.83
2022-10-23T04:42:04.294Z,22.48
2022-10-23T04:44:38.020Z,19.50
2022-10-23T04:47:05.245Z,20.08
2022-10-23T04:49:32.374Z,18.85
2022-10-23T04:52:06.107Z,17.70
2022-10-23T04:54:39.881Z,18.90
2022-10-23T04:57:14.065Z,21.52
2022-10-23T04:59:41.225Z,20.50
2022-10-23T05:02:08.381Z,18.10
2022-10-23T05:04:41.938Z,17.88
2022-10-23T05:07:09.297Z,17.63
2022-10-23T05:09:43.170Z,17.45
2022-10-23T05:12:10.320Z,17.65
2022-10-23T05:14:37.410Z,15.90
2022-10-23T05:17:22.923Z,15.90
2022-10-23T05:20:11.826Z,15.20
2022-10-23T05:25:12.889Z,13.00
2022-10-23T05:27:46.954Z,13.02
2022-10-23T05:30:14.228Z,13.68
2022-10-23T05:32:41.973Z,12.88
2022-10-23T05:35:18.931Z,11.95
2022-10-23T05:37:46.967Z,11.50
2022-10-23T05:40:21.007Z,11.68
2022-10-23T05:42:48.589Z,12.90
2022-10-23T05:45:15.926Z,11.07
2022-10-23T05:47:50.963Z,11.77
2022-10-23T05:50:18.357Z,10.95
2022-10-23T05:52:55.911Z,10.98
2022-10-23T05:55:23.091Z,10.55
2022-10-23T05:57:56.983Z,9.00
2022-10-23T06:00:24.307Z,9.18
2022-10-23T06:02:51.395Z,9.80
2022-10-23T06:05:24.957Z,9.20
2022-10-23T06:07:52.119Z,7.80
2022-10-23T06:10:25.956Z,7.03
2022-10-23T06:12:53.103Z,7.65
2022-10-23T06:15:20.186Z,6.38
2022-10-23T06:17:54.006Z,6.47
2022-10-23T06:20:40.868Z,6.57
2022-10-23T06:23:15.089Z,6.53
2022-10-23T06:25:42.352Z,6.72
2022-10-23T06:28:09.447Z,5.65
2022-10-23T06:30:45.950Z,6.88
2022-10-23T06:33:13.057Z,6.63
2022-10-23T06:35:46.977Z,6.18
2022-10-23T06:38:14.147Z,5.68
2022-10-23T06:40:41.512Z,5.72
2022-10-23T06:43:16.051Z,4.93
2022-10-23T06:45:43.259Z,4.93
2022-10-23T06:48:17.015Z,4.68
2022-10-23T06:50:44.628Z,4.75
2022-10-23T06:55:52.854Z,4.88
2022-10-23T06:58:22.934Z,4.93
2022-10-23T07:03:24.409Z,5.30
2022-10-23T07:05:51.490Z,5.70
2022-10-23T07:08:24.964Z,6.10
2022-10-23T07:10:52.134Z,5.00
2022-10-23T07:13:26.038Z,6.10
2022-10-23T07:15:53.253Z,5.25
2022-10-23T07:18:20.516Z,5.95
2022-10-23T07:20:56.064Z,5.95
2022-10-23T07:23:29.860Z,5.97
2022-10-23T07:26:04.005Z,5.78
2022-10-23T07:28:31.666Z,5.20
2022-10-23T07:30:59.304Z,7.55
2022-10-23T07:36:00.780Z,9.10
2022-10-23T07:38:35.127Z,10.07
2022-10-23T07:41:02.389Z,12.45
2022-10-23T07:43:29.628Z,13.20
2022-10-23T07:46:04.090Z,12.18
2022-10-23T07:48:31.432Z,15.43
2022-10-23T07:51:00.868Z,12.82
2022-10-23T07:53:34.958Z,12.23
2022-10-23T07:56:03.072Z,16.75
2022-10-23T07:58:37.124Z,14.55
2022-10-23T08:01:05.013Z,15.00
2022-10-23T08:03:33.290Z,16.48
2022-10-23T08:06:08.071Z,16.90
2022-10-23T08:08:35.316Z,15.05
2022-10-23T08:11:09.160Z,15.45
2022-10-23T08:13:36.390Z,18.45
2022-10-23T08:16:03.565Z,17.40
2022-10-23T08:18:37.061Z,22.27
2022-10-23T08:21:10.955Z,20.65
2022-10-23T08:23:45.217Z,19.38
2022-10-23T08:26:12.629Z,19.75
2022-10-23T08:28:40.016Z,17.98
2022-10-23T08:31:18.151Z,20.23
2022-10-23T08:33:45.415Z,20.33
2022-10-23T08:36:30.079Z,21.45
2022-10-23T08:38:58.118Z,21.30
2022-10-23T08:41:38.034Z,20.63
2022-10-23T08:44:10.839Z,22.58
2022-10-23T08:46:48.154Z,19.67
2022-10-23T08:49:26.135Z,18.57
2022-10-23T08:52:02.000Z,18.25
2022-10-23T08:54:49.399Z,16.08
2022-10-23T08:57:25.105Z,15.82
2022-10-23T08:59:59.707Z,22.55
2022-10-23T09:02:35.074Z,20.13
2022-10-23T09:05:02.357Z,15.68
2022-10-23T09:07:41.184Z,14.98
2022-10-23T09:10:11.704Z,15.02
2022-10-23T09:12:39.639Z,16.75
2022-10-23T09:15:15.984Z,15.45
2022-10-23T09:17:44.709Z,14.93
2022-10-23T09:20:18.074Z,14.40
2022-10-23T09:23:01.835Z,13.25
2022-10-23T09:25:37.115Z,14.93
2022-10-23T09:28:05.780Z,10.73
2022-10-23T09:30:36.294Z,13.13
2022-10-23T09:33:29.994Z,11.48
2022-10-23T09:36:02.361Z,11.32
2022-10-23T09:38:36.070Z,11.90
2022-10-23T09:41:12.507Z,9.00
2022-10-23T09:43:46.153Z,8.43
2022-10-23T09:46:13.455Z,8.98
2022-10-23T09:48:42.466Z,11.05
2022-10-23T09:51:27.040Z,10.07
2022-10-23T09:53:56.055Z,9.23
2022-10-23T09:56:41.062Z,8.80
2022-10-23T09:59:14.261Z,8.63
2022-10-23T10:02:08.210Z,8.63
2022-10-23T10:04:41.973Z,7.30
2022-10-23T10:07:35.956Z,7.50
2022-10-23T10:10:14.985Z,7.35
2022-10-23T10:12:59.124Z,7.78
2022-10-23T10:15:41.684Z,7.90
2022-10-23T23:18:13.254Z,8.35
2022-10-23T23:20:47.228Z,10.30
2022-10-23T23:23:14.815Z,9.25
2022-10-23T23:28:15.498Z,10.70
2022-10-23T23:30:42.809Z,10.82
2022-10-23T23:33:10.785Z,10.25
2022-10-23T23:35:51.304Z,12.45
2022-10-23T23:38:18.382Z,10.40
2022-10-23T23:40:58.300Z,12.18
2022-10-23T23:43:25.421Z,12.70
2022-10-23T23:45:52.615Z,12.88
2022-10-23T23:48:26.277Z,10.68
2022-10-23T23:50:53.476Z,13.65
2022-10-23T23:53:27.379Z,11.43
2022-10-23T23:55:54.542Z,12.50
2022-10-23T23:58:21.716Z,11.95
